Spy Hill, Canada
Current Conditions -  °F | °C
As of 4:02 PM on Tuesday 25 Nov 2014 (Local Time) from CYQV Reporting Station
Overcast Overcast  
Wind Chill: -15°   Ceiling: 2400
Heat Index:   Visibility: 9mi
Dew Point: -4°   Wind: 14mph
Humidity: 72%   Direction: 10°N
Pressure: 30.06"   Gusts: NA
Location:  50.6°N, 101.68°W
Report Text: CYQV 252202Z AUTO 01012KT 9SM BKN024 OVC110 M16/M20 A3006 RMK SLP221
Loading
Personal Weather Stations






























Interactive Weather Map New forecast layout! Learn more

10-Day Weather Forecast

Advertisements
Track Severe Weather on mobile